createdAt,value
2022-10-18T00:00:12.894Z,22.84
2022-10-18T00:00:22.934Z,22.84
2022-10-18T00:00:32.975Z,22.84
2022-10-18T00:00:43.032Z,22.84
2022-10-18T00:00:53.077Z,22.84
2022-10-18T00:01:13.137Z,22.84
2022-10-18T00:01:23.173Z,22.86
2022-10-18T00:01:33.227Z,22.84
2022-10-18T00:01:43.314Z,22.84
2022-10-18T00:01:53.390Z,22.83
2022-10-18T00:02:13.542Z,22.83
2022-10-18T00:02:23.555Z,22.83
2022-10-18T00:02:33.707Z,22.82
2022-10-18T00:02:43.676Z,22.83
2022-10-18T00:02:53.710Z,22.84
2022-10-18T00:03:13.766Z,22.82
2022-10-18T00:03:23.807Z,22.82
2022-10-18T00:03:33.903Z,22.84
2022-10-18T00:03:43.969Z,22.82
2022-10-18T00:03:54.018Z,22.82
2022-10-18T00:04:14.072Z,22.83
2022-10-18T00:04:24.122Z,22.83
2022-10-18T00:04:34.176Z,22.82
2022-10-18T00:04:44.219Z,22.82
2022-10-18T00:04:54.250Z,22.82
2022-10-18T00:05:14.335Z,22.82
2022-10-18T00:05:24.381Z,22.82
2022-10-18T00:05:34.444Z,22.82
2022-10-18T00:05:44.502Z,22.83
2022-10-18T00:05:54.544Z,22.83
2022-10-18T00:06:14.599Z,22.83
2022-10-18T00:06:24.639Z,22.83
2022-10-18T00:06:34.680Z,22.82
2022-10-18T00:06:44.718Z,22.83
2022-10-18T00:06:54.762Z,22.83
2022-10-18T00:07:14.825Z,22.80
2022-10-18T00:07:24.872Z,22.82
2022-10-18T00:07:34.912Z,22.80
2022-10-18T00:07:44.966Z,22.82
2022-10-18T00:07:55.108Z,22.82
2022-10-18T00:08:15.059Z,22.82
2022-10-18T00:08:25.104Z,22.83
2022-10-18T00:08:35.134Z,22.80
2022-10-18T00:08:45.179Z,22.82
2022-10-18T00:08:55.236Z,22.82
2022-10-18T00:09:15.286Z,22.82
2022-10-18T00:09:25.329Z,22.82
2022-10-18T00:09:35.378Z,22.80
2022-10-18T00:09:45.423Z,22.82
2022-10-18T00:09:55.474Z,22.82
2022-10-18T00:10:15.581Z,22.80
2022-10-18T00:10:25.628Z,22.82
2022-10-18T00:10:35.666Z,22.82
2022-10-18T00:10:45.714Z,22.80
2022-10-18T00:10:55.762Z,22.82
2022-10-18T00:11:15.818Z,22.80
2022-10-18T00:11:25.886Z,22.82
2022-10-18T00:11:35.944Z,22.80
2022-10-18T00:11:45.984Z,22.80
2022-10-18T00:11:56.032Z,22.82
2022-10-18T00:12:16.089Z,22.80
2022-10-18T00:12:26.127Z,22.78
2022-10-18T00:12:36.211Z,22.82
2022-10-18T00:12:56.202Z,22.78
2022-10-18T00:13:16.257Z,22.80
2022-10-18T00:13:26.293Z,22.80
2022-10-18T00:13:36.335Z,22.80
2022-10-18T00:13:46.374Z,22.78
2022-10-18T00:13:56.427Z,22.80
2022-10-18T00:14:16.478Z,22.80
2022-10-18T00:14:26.522Z,22.80
2022-10-18T00:14:36.568Z,22.80
2022-10-18T00:14:46.607Z,22.80
2022-10-18T00:14:56.647Z,22.78
2022-10-18T00:15:16.726Z,22.80
2022-10-18T00:15:26.765Z,22.82
2022-10-18T00:15:36.804Z,22.82
2022-10-18T00:15:46.871Z,22.82
2022-10-18T00:15:56.969Z,22.82
2022-10-18T00:16:17.019Z,22.82
2022-10-18T00:16:27.067Z,22.82
2022-10-18T00:16:37.122Z,22.82
2022-10-18T00:16:47.158Z,22.82
2022-10-18T00:16:57.296Z,22.82
2022-10-18T00:17:17.238Z,22.84
2022-10-18T00:17:27.428Z,22.84
2022-10-18T00:17:37.415Z,22.83
2022-10-18T00:17:47.466Z,22.82
2022-10-18T00:17:57.537Z,22.83
2022-10-18T00:18:17.611Z,22.86
2022-10-18T00:18:27.658Z,22.83
2022-10-18T00:18:37.698Z,22.84
2022-10-18T00:18:47.750Z,22.84
2022-10-18T00:18:57.786Z,22.83
2022-10-18T00:19:07.839Z,22.83
2022-10-18T00:19:17.882Z,22.86
2022-10-18T00:19:29.317Z,22.84
2022-10-18T00:19:37.989Z,22.83
2022-10-18T00:19:48.041Z,22.84
2022-10-18T00:19:58.088Z,22.83
2022-10-18T00:20:08.141Z,22.84
2022-10-18T00:20:18.177Z,22.84
2022-10-18T00:20:28.229Z,22.83
2022-10-18T00:20:38.274Z,22.84
2022-10-18T00:20:48.320Z,22.84
2022-10-18T00:20:58.359Z,22.84
2022-10-18T00:21:08.426Z,22.84
2022-10-18T00:21:18.460Z,22.84
2022-10-18T00:21:28.510Z,22.83
2022-10-18T00:21:38.582Z,22.83
2022-10-18T00:21:48.654Z,22.83
2022-10-18T00:21:58.694Z,22.84
2022-10-18T00:22:08.739Z,22.83
2022-10-18T00:22:18.792Z,22.83
2022-10-18T00:22:29.215Z,22.84
2022-10-18T00:22:38.879Z,22.84
2022-10-18T00:22:48.949Z,22.83
2022-10-18T00:22:59.018Z,22.83
2022-10-18T00:23:09.064Z,22.83
2022-10-18T00:23:19.103Z,22.83
2022-10-18T00:23:29.154Z,22.82
2022-10-18T00:23:39.209Z,22.83
2022-10-18T00:23:49.263Z,22.84
2022-10-18T00:23:59.302Z,22.83
2022-10-18T00:24:09.340Z,22.83
2022-10-18T00:24:19.386Z,22.82
2022-10-18T00:24:29.452Z,22.84
2022-10-18T00:24:39.493Z,22.83
2022-10-18T00:24:49.523Z,22.82
2022-10-18T00:24:59.564Z,22.83
2022-10-18T00:25:09.622Z,22.83
2022-10-18T00:25:19.657Z,22.82
2022-10-18T00:25:29.712Z,22.82
2022-10-18T00:25:39.764Z,22.83
2022-10-18T00:25:49.797Z,22.82
2022-10-18T00:26:09.847Z,22.82
2022-10-18T00:26:19.893Z,22.82
2022-10-18T00:26:29.946Z,22.80
2022-10-18T00:26:39.989Z,22.82
2022-10-18T00:26:50.037Z,22.82
2022-10-18T00:27:10.107Z,22.83
2022-10-18T00:27:20.152Z,22.82
2022-10-18T00:27:30.189Z,22.83
2022-10-18T00:27:40.240Z,22.82
2022-10-18T00:27:50.286Z,22.83
2022-10-18T00:28:10.347Z,22.82
2022-10-18T00:28:20.389Z,22.83
2022-10-18T00:28:30.455Z,22.83
2022-10-18T00:28:40.572Z,22.83
2022-10-18T00:28:50.688Z,22.83
2022-10-18T00:29:10.640Z,22.83
2022-10-18T00:29:20.688Z,22.82
2022-10-18T00:29:30.737Z,22.83
2022-10-18T00:29:40.788Z,22.82
2022-10-18T00:29:50.847Z,22.83
2022-10-18T00:30:10.908Z,22.82
2022-10-18T00:30:20.946Z,22.83
2022-10-18T00:30:30.991Z,22.83
2022-10-18T00:30:41.083Z,22.82
2022-10-18T00:30:51.155Z,22.82
2022-10-18T00:31:11.210Z,22.82
2022-10-18T00:31:21.251Z,22.80
2022-10-18T00:31:31.302Z,22.82
2022-10-18T00:31:41.351Z,22.80
2022-10-18T00:31:51.395Z,22.80
2022-10-18T00:32:11.569Z,22.80
2022-10-18T00:32:21.611Z,22.80
2022-10-18T00:32:32.020Z,22.80
2022-10-18T00:32:41.700Z,22.80
2022-10-18T00:32:51.741Z,22.82
2022-10-18T00:33:11.810Z,22.80
2022-10-18T00:33:21.847Z,22.82
2022-10-18T00:33:31.899Z,22.80
2022-10-18T00:33:41.968Z,22.78
2022-10-18T00:33:52.034Z,22.80
2022-10-18T00:34:12.104Z,22.80
2022-10-18T00:34:22.140Z,22.78
2022-10-18T00:34:32.188Z,22.80
2022-10-18T00:34:42.234Z,22.80
2022-10-18T00:34:52.270Z,22.80
2022-10-18T00:35:12.347Z,22.80
2022-10-18T00:35:22.395Z,22.80
2022-10-18T00:35:32.455Z,22.82
2022-10-18T00:35:42.510Z,22.80
2022-10-18T00:35:52.573Z,22.80
2022-10-18T00:36:12.634Z,22.80
2022-10-18T00:36:22.669Z,22.80
2022-10-18T00:36:32.714Z,22.80
2022-10-18T00:36:42.758Z,22.80
2022-10-18T00:36:52.806Z,22.80
2022-10-18T00:37:12.859Z,22.82
2022-10-18T00:37:22.906Z,22.82
2022-10-18T00:37:32.950Z,22.80
2022-10-18T00:37:43.006Z,22.82
2022-10-18T00:37:53.175Z,22.80
2022-10-18T00:38:13.120Z,22.82
2022-10-18T00:38:23.167Z,22.82
2022-10-18T00:38:33.217Z,22.83
2022-10-18T00:38:43.260Z,22.82
2022-10-18T00:38:53.301Z,22.83
2022-10-18T00:39:13.362Z,22.83
2022-10-18T00:39:23.405Z,22.83
2022-10-18T00:39:33.440Z,22.83
2022-10-18T00:39:43.533Z,22.83
2022-10-18T00:39:53.600Z,22.84
2022-10-18T00:40:13.667Z,22.83
2022-10-18T00:40:23.701Z,22.83
2022-10-18T00:40:33.754Z,22.83
2022-10-18T00:40:43.794Z,22.84
2022-10-18T00:40:53.836Z,22.84
2022-10-18T00:41:13.891Z,22.84
2022-10-18T00:41:23.929Z,22.86
2022-10-18T00:41:33.977Z,22.86
2022-10-18T00:41:44.039Z,22.84
2022-10-18T00:41:54.094Z,22.84
2022-10-18T00:42:14.150Z,22.86
2022-10-18T00:42:24.189Z,22.84
2022-10-18T00:42:34.520Z,22.86
2022-10-18T00:42:44.396Z,22.86
2022-10-18T00:42:54.438Z,22.84
2022-10-18T00:43:14.500Z,22.86
2022-10-18T00:43:24.542Z,22.86
2022-10-18T00:43:34.588Z,22.84
2022-10-18T00:43:44.638Z,22.86
2022-10-18T00:43:54.686Z,22.84
2022-10-18T00:44:14.752Z,22.86
2022-10-18T00:44:24.795Z,22.86
2022-10-18T00:44:34.847Z,22.84
2022-10-18T00:44:44.897Z,22.86
2022-10-18T00:44:54.941Z,22.86
2022-10-18T00:45:15.007Z,22.84
2022-10-18T00:45:25.052Z,22.86
2022-10-18T00:45:35.109Z,22.87
2022-10-18T00:45:45.145Z,22.86
2022-10-18T00:45:55.185Z,22.87
2022-10-18T00:46:15.238Z,22.87
2022-10-18T00:46:25.284Z,22.86
2022-10-18T00:46:35.336Z,22.87
2022-10-18T00:46:45.380Z,22.86
2022-10-18T00:46:55.441Z,22.87
2022-10-18T00:47:15.502Z,22.87
2022-10-18T00:47:25.542Z,22.84
2022-10-18T00:47:35.590Z,22.86
2022-10-18T00:47:45.635Z,22.86
2022-10-18T00:47:55.701Z,22.86
2022-10-18T00:48:15.786Z,22.84
2022-10-18T00:48:25.857Z,22.86
2022-10-18T00:48:35.902Z,22.87
2022-10-18T00:48:45.987Z,22.86
2022-10-18T00:48:56.077Z,22.86
2022-10-18T00:49:16.190Z,22.87
2022-10-18T00:49:26.234Z,22.87
2022-10-18T00:49:36.285Z,22.84
2022-10-18T00:49:46.327Z,22.87
2022-10-18T00:49:56.371Z,22.87
2022-10-18T00:50:16.427Z,22.86
2022-10-18T00:50:26.462Z,22.84
2022-10-18T00:50:36.503Z,22.84
2022-10-18T00:50:46.531Z,22.84
2022-10-18T00:50:56.582Z,22.83
2022-10-18T00:51:16.642Z,22.84
2022-10-18T00:51:26.688Z,22.83
2022-10-18T00:51:36.739Z,22.86
2022-10-18T00:51:46.775Z,22.83
2022-10-18T00:51:56.814Z,22.83
2022-10-18T00:52:16.874Z,22.84
2022-10-18T00:52:27.028Z,22.83
2022-10-18T00:52:37.000Z,22.84
2022-10-18T00:52:47.040Z,22.82
2022-10-18T00:52:57.080Z,22.83
2022-10-18T00:53:17.135Z,22.83
2022-10-18T00:53:27.188Z,22.83
2022-10-18T00:53:37.237Z,22.83
2022-10-18T00:53:47.276Z,22.83
2022-10-18T00:53:57.326Z,22.82
2022-10-18T00:54:17.377Z,22.83
2022-10-18T00:54:27.410Z,22.82
2022-10-18T00:54:37.447Z,22.83
2022-10-18T00:54:47.489Z,22.82
2022-10-18T00:54:57.535Z,22.83
2022-10-18T00:55:17.595Z,22.82
2022-10-18T00:55:27.635Z,22.82
2022-10-18T00:55:37.685Z,22.83
2022-10-18T00:55:47.727Z,22.84
2022-10-18T00:55:57.774Z,22.82
2022-10-18T00:56:07.823Z,22.83
2022-10-18T00:56:17.871Z,22.82
2022-10-18T00:56:27.915Z,22.83
2022-10-18T00:56:37.951Z,22.82
2022-10-18T00:56:47.999Z,22.82
2022-10-18T00:56:58.042Z,22.82
2022-10-18T00:57:08.067Z,22.83
2022-10-18T00:57:18.110Z,22.82
2022-10-18T00:57:28.180Z,22.80
2022-10-18T00:57:38.241Z,22.82
2022-10-18T00:57:48.342Z,22.80
2022-10-18T00:57:58.409Z,22.80
2022-10-18T00:58:08.478Z,22.80
2022-10-18T00:58:18.517Z,22.80
2022-10-18T00:58:28.564Z,22.80
2022-10-18T00:58:38.618Z,22.80
2022-10-18T00:58:48.660Z,22.78
2022-10-18T00:58:58.705Z,22.80
2022-10-18T00:59:08.746Z,22.80
2022-10-18T00:59:18.787Z,22.78
2022-10-18T00:59:28.862Z,22.78
2022-10-18T00:59:38.906Z,22.80
2022-10-18T00:59:48.953Z,22.78
2022-10-18T01:00:09.031Z,22.77
2022-10-18T01:00:19.068Z,22.78
2022-10-18T01:00:29.117Z,22.78
2022-10-18T01:00:39.161Z,22.80
2022-10-18T01:00:49.206Z,22.80
2022-10-18T01:01:09.289Z,22.80
2022-10-18T01:01:21.282Z,22.80
2022-10-18T01:01:29.460Z,22.80
2022-10-18T01:01:39.610Z,22.80
2022-10-18T01:01:49.632Z,22.80
2022-10-18T01:02:09.640Z,22.80
2022-10-18T01:02:19.721Z,22.78
2022-10-18T01:02:30.148Z,22.80
2022-10-18T01:02:39.839Z,22.78
2022-10-18T01:02:49.878Z,22.80
2022-10-18T01:03:09.927Z,22.78
2022-10-18T01:03:19.971Z,22.82
2022-10-18T01:03:30.019Z,22.80
2022-10-18T01:03:40.053Z,22.82
2022-10-18T01:03:50.106Z,22.82
2022-10-18T01:04:10.162Z,22.82
2022-10-18T01:04:20.214Z,22.82
2022-10-18T01:04:30.269Z,22.80
2022-10-18T01:04:40.313Z,22.82
2022-10-18T01:04:50.370Z,22.78
2022-10-18T01:05:10.425Z,22.80
2022-10-18T01:05:20.469Z,22.82
2022-10-18T01:05:30.518Z,22.80
2022-10-18T01:05:40.560Z,22.80
2022-10-18T01:05:50.610Z,22.78
2022-10-18T01:06:10.664Z,22.80
2022-10-18T01:06:20.701Z,22.78
2022-10-18T01:06:30.739Z,22.78
2022-10-18T01:06:40.770Z,22.80
2022-10-18T01:06:50.879Z,22.77
2022-10-18T01:07:10.974Z,22.77
2022-10-18T01:07:21.021Z,22.77
2022-10-18T01:07:31.317Z,22.77
2022-10-18T01:07:41.119Z,22.77
2022-10-18T01:07:51.170Z,22.77
2022-10-18T01:08:11.229Z,22.77
2022-10-18T01:08:21.278Z,22.77
2022-10-18T01:08:31.328Z,22.77
2022-10-18T01:08:41.365Z,22.78
2022-10-18T01:08:51.445Z,22.75
2022-10-18T01:09:11.496Z,22.77
2022-10-18T01:09:21.531Z,22.77
2022-10-18T01:09:31.579Z,22.78
2022-10-18T01:09:41.635Z,22.78
2022-10-18T01:09:51.660Z,22.77
2022-10-18T01:10:11.729Z,22.77
2022-10-18T01:10:21.774Z,22.78
2022-10-18T01:10:31.836Z,22.78
2022-10-18T01:10:41.879Z,22.78
2022-10-18T01:10:51.919Z,22.77
2022-10-18T01:11:11.980Z,22.78
2022-10-18T01:11:22.019Z,22.80
2022-10-18T01:11:32.057Z,22.80
2022-10-18T01:11:42.106Z,22.80
2022-10-18T01:11:52.150Z,22.78
2022-10-18T01:12:12.209Z,22.80
2022-10-18T01:12:22.258Z,22.77
2022-10-18T01:12:32.299Z,22.78
2022-10-18T01:12:42.339Z,22.77
2022-10-18T01:12:52.401Z,22.78
2022-10-18T01:13:12.466Z,22.77
2022-10-18T01:13:25.594Z,22.77
2022-10-18T01:13:32.556Z,22.77
2022-10-18T01:13:42.590Z,22.78
2022-10-18T01:13:52.619Z,22.77
2022-10-18T01:14:12.681Z,22.80
2022-10-18T01:14:22.732Z,22.78
2022-10-18T01:14:32.771Z,22.78
2022-10-18T01:14:42.818Z,22.80
2022-10-18T01:14:52.874Z,22.80
2022-10-18T01:15:12.933Z,22.80
2022-10-18T01:15:22.986Z,22.77
2022-10-18T01:15:33.053Z,22.80
2022-10-18T01:15:43.096Z,22.80
2022-10-18T01:15:53.155Z,22.78
2022-10-18T01:16:13.283Z,22.77
2022-10-18T01:16:23.328Z,22.75
2022-10-18T01:16:33.378Z,22.77
2022-10-18T01:16:43.422Z,22.77
2022-10-18T01:16:53.464Z,22.77
2022-10-18T01:17:13.520Z,22.77
2022-10-18T01:17:23.567Z,22.78
2022-10-18T01:17:33.885Z,22.75
2022-10-18T01:17:43.728Z,22.75
2022-10-18T01:17:53.779Z,22.77
2022-10-18T01:18:13.873Z,22.77
2022-10-18T01:18:23.915Z,22.74
2022-10-18T01:18:33.966Z,22.75
2022-10-18T01:18:44.012Z,22.75
2022-10-18T01:18:54.058Z,22.74
2022-10-18T01:19:14.128Z,22.75
2022-10-18T01:19:24.177Z,22.75
2022-10-18T01:19:34.224Z,22.74
2022-10-18T01:19:44.263Z,22.72
2022-10-18T01:19:54.489Z,22.77
2022-10-18T01:20:14.414Z,22.75
2022-10-18T01:20:24.457Z,22.75
2022-10-18T01:20:34.526Z,22.75
2022-10-18T01:20:44.573Z,22.77
2022-10-18T01:20:54.624Z,22.75
2022-10-18T01:21:14.665Z,22.75
2022-10-18T01:21:24.708Z,22.78
2022-10-18T01:21:34.762Z,22.74
2022-10-18T01:21:44.801Z,22.78
2022-10-18T01:21:54.856Z,22.75
2022-10-18T01:22:14.918Z,22.77
2022-10-18T01:22:24.956Z,22.77
2022-10-18T01:22:35.009Z,22.77
2022-10-18T01:22:45.052Z,22.78
2022-10-18T01:22:55.099Z,22.75
2022-10-18T01:23:15.157Z,22.77
2022-10-18T01:23:25.201Z,22.77
2022-10-18T01:23:35.241Z,22.75
2022-10-18T01:23:45.280Z,22.75
2022-10-18T01:23:55.328Z,22.75
2022-10-18T01:24:15.384Z,22.74
2022-10-18T01:24:25.431Z,22.75
2022-10-18T01:24:35.481Z,22.74
2022-10-18T01:24:45.520Z,22.74
2022-10-18T01:24:55.620Z,22.75
2022-10-18T01:25:15.732Z,22.74
2022-10-18T01:25:25.770Z,22.72
2022-10-18T01:25:35.853Z,22.72
2022-10-18T01:25:45.894Z,22.74
2022-10-18T01:25:55.955Z,22.74
2022-10-18T01:26:16.014Z,22.77
2022-10-18T01:26:26.050Z,22.74
2022-10-18T01:26:36.106Z,22.75
2022-10-18T01:26:46.143Z,22.75
2022-10-18T01:26:56.189Z,22.75
2022-10-18T01:27:16.244Z,22.77
2022-10-18T01:27:26.284Z,22.75
2022-10-18T01:27:36.327Z,22.74
2022-10-18T01:27:46.373Z,22.78
2022-10-18T01:27:56.418Z,22.75
2022-10-18T01:28:16.482Z,22.75
2022-10-18T01:28:26.548Z,22.75
2022-10-18T01:28:36.654Z,22.77
2022-10-18T01:28:46.792Z,22.75
2022-10-18T01:28:56.965Z,22.74
2022-10-18T01:29:16.926Z,22.75
2022-10-18T01:29:26.974Z,22.75
2022-10-18T01:29:37.040Z,22.75
2022-10-18T01:29:47.082Z,22.75
2022-10-18T01:29:57.129Z,22.75
2022-10-18T01:30:17.205Z,22.75
2022-10-18T01:30:27.237Z,22.75
2022-10-18T01:30:37.295Z,22.75
2022-10-18T01:30:47.343Z,22.72
2022-10-18T01:30:57.395Z,22.75
2022-10-18T01:31:17.458Z,22.75
2022-10-18T01:31:27.495Z,22.74
2022-10-18T01:31:37.545Z,22.75
2022-10-18T01:31:47.608Z,22.74
2022-10-18T01:31:59.498Z,22.75
2022-10-18T01:32:07.705Z,22.74
2022-10-18T01:32:17.751Z,22.77
2022-10-18T01:32:27.801Z,22.77
2022-10-18T01:32:37.851Z,22.77
2022-10-18T01:32:47.889Z,22.75
2022-10-18T01:32:57.933Z,22.78
2022-10-18T01:33:08.003Z,22.75
2022-10-18T01:33:18.046Z,22.77
2022-10-18T01:33:28.106Z,22.77
2022-10-18T01:33:38.138Z,22.77
2022-10-18T01:33:48.263Z,22.77
2022-10-18T01:34:08.340Z,22.77
2022-10-18T01:34:18.385Z,22.77
2022-10-18T01:34:28.431Z,22.77
2022-10-18T01:34:38.472Z,22.77
2022-10-18T01:34:48.515Z,22.80
2022-10-18T01:35:08.577Z,22.78
2022-10-18T01:35:18.632Z,22.77
2022-10-18T01:35:28.666Z,22.77
2022-10-18T01:35:38.715Z,22.78
2022-10-18T01:35:48.756Z,22.78
2022-10-18T01:36:08.826Z,22.77
2022-10-18T01:36:18.858Z,22.78
2022-10-18T01:36:28.903Z,22.77
2022-10-18T01:36:38.951Z,22.77
2022-10-18T01:36:49.001Z,22.78
2022-10-18T01:37:09.057Z,22.78
2022-10-18T01:37:19.093Z,22.78
2022-10-18T01:37:29.588Z,22.80
2022-10-18T01:37:39.262Z,22.78
2022-10-18T01:37:49.304Z,22.80
2022-10-18T01:38:09.384Z,22.80
2022-10-18T01:38:19.421Z,22.82
2022-10-18T01:38:29.483Z,22.80
2022-10-18T01:38:39.578Z,22.80
2022-10-18T01:38:49.610Z,22.82
2022-10-18T01:39:09.687Z,22.80
2022-10-18T01:39:19.718Z,22.80
2022-10-18T01:39:29.839Z,22.82
2022-10-18T01:39:39.880Z,22.80
2022-10-18T01:39:49.922Z,22.78
2022-10-18T01:40:09.988Z,22.80
2022-10-18T01:40:20.032Z,22.77
2022-10-18T01:40:30.072Z,22.78
2022-10-18T01:40:40.118Z,22.78
2022-10-18T01:40:50.170Z,22.78
2022-10-18T01:41:13.262Z,22.77
2022-10-18T01:41:20.343Z,22.75
2022-10-18T01:41:30.383Z,22.75
2022-10-18T01:41:40.431Z,22.74
2022-10-18T01:41:50.458Z,22.74
2022-10-18T01:42:10.496Z,22.75
2022-10-18T01:42:20.530Z,22.75
2022-10-18T01:42:30.569Z,22.75
2022-10-18T01:42:40.617Z,22.74
2022-10-18T01:42:50.665Z,22.75
2022-10-18T01:43:10.759Z,22.75
2022-10-18T01:43:20.795Z,22.75
2022-10-18T01:43:30.834Z,22.75
2022-10-18T01:43:40.888Z,22.77
2022-10-18T01:43:50.937Z,22.77
2022-10-18T01:44:10.988Z,22.77
2022-10-18T01:44:21.027Z,22.77
2022-10-18T01:44:31.079Z,22.77
2022-10-18T01:44:41.127Z,22.77
2022-10-18T01:44:51.173Z,22.77
2022-10-18T01:45:11.249Z,22.77
2022-10-18T01:45:21.287Z,22.77
2022-10-18T01:45:31.330Z,22.78
2022-10-18T01:45:41.366Z,22.77
2022-10-18T01:45:51.405Z,22.78
2022-10-18T01:46:11.458Z,22.77
2022-10-18T01:46:21.509Z,22.75
2022-10-18T01:46:31.548Z,22.77
2022-10-18T01:46:41.586Z,22.75
2022-10-18T01:46:51.634Z,22.75
2022-10-18T01:47:11.693Z,22.74
2022-10-18T01:47:21.738Z,22.74
2022-10-18T01:47:32.103Z,22.74
2022-10-18T01:47:41.856Z,22.74
2022-10-18T01:47:51.898Z,22.72
2022-10-18T01:48:11.981Z,22.74
2022-10-18T01:48:22.016Z,22.74
2022-10-18T01:48:32.057Z,22.74
2022-10-18T01:48:42.104Z,22.72
2022-10-18T01:48:52.154Z,22.72
2022-10-18T01:49:12.224Z,22.72
2022-10-18T01:49:22.355Z,22.74
2022-10-18T01:49:32.399Z,22.74
2022-10-18T01:49:42.438Z,22.74
2022-10-18T01:49:52.483Z,22.74
2022-10-18T01:50:12.544Z,22.75
2022-10-18T01:50:22.575Z,22.74
2022-10-18T01:50:32.654Z,22.75
2022-10-18T01:50:42.693Z,22.74
2022-10-18T01:50:52.741Z,22.75
2022-10-18T01:51:12.817Z,22.75
2022-10-18T01:51:22.872Z,22.75
2022-10-18T01:51:32.913Z,22.74
2022-10-18T01:51:42.951Z,22.75
2022-10-18T01:51:53.033Z,22.75
2022-10-18T01:52:13.158Z,22.74
2022-10-18T01:52:23.191Z,22.74
2022-10-18T01:52:33.459Z,22.72
2022-10-18T01:52:43.268Z,22.74
2022-10-18T01:52:53.309Z,22.72
2022-10-18T01:53:13.378Z,22.74
2022-10-18T01:53:23.421Z,22.72
2022-10-18T01:53:33.459Z,22.72
2022-10-18T01:53:43.511Z,22.71
2022-10-18T01:53:53.574Z,22.72
2022-10-18T01:54:13.647Z,22.72
2022-10-18T01:54:23.690Z,22.72
2022-10-18T01:54:33.742Z,22.72
2022-10-18T01:54:43.779Z,22.71
2022-10-18T01:54:53.818Z,22.72
2022-10-18T01:55:03.869Z,22.71
2022-10-18T01:55:13.922Z,22.71
2022-10-18T01:55:23.971Z,22.72
2022-10-18T01:55:34.018Z,22.71
2022-10-18T01:55:44.060Z,22.71
2022-10-18T01:55:54.104Z,22.72
2022-10-18T01:56:04.148Z,22.72
2022-10-18T01:56:14.221Z,22.72
2022-10-18T01:56:24.261Z,22.72
2022-10-18T01:56:34.307Z,22.72
2022-10-18T01:56:44.354Z,22.71
2022-10-18T01:56:54.392Z,22.74
2022-10-18T01:57:04.435Z,22.74
2022-10-18T01:57:14.476Z,22.74
2022-10-18T01:57:24.519Z,22.74
2022-10-18T01:57:34.564Z,22.75
2022-10-18T01:57:44.596Z,22.74
2022-10-18T01:57:54.649Z,22.74
2022-10-18T01:58:04.692Z,22.74
2022-10-18T01:58:14.733Z,22.75
2022-10-18T01:58:24.777Z,22.72
2022-10-18T01:58:34.824Z,22.74
2022-10-18T01:58:44.873Z,22.75
2022-10-18T01:58:54.918Z,22.74
2022-10-18T01:59:04.961Z,22.75
2022-10-18T01:59:15.090Z,22.77
2022-10-18T01:59:25.143Z,22.77
2022-10-18T01:59:35.183Z,22.75
2022-10-18T01:59:45.227Z,22.78
2022-10-18T01:59:55.287Z,22.78
2022-10-18T02:00:05.338Z,22.78
2022-10-18T02:00:15.393Z,22.77
2022-10-18T02:00:25.440Z,22.77
2022-10-18T02:00:35.488Z,22.78
2022-10-18T02:00:45.535Z,22.78
2022-10-18T02:00:55.570Z,22.77
2022-10-18T02:01:05.627Z,22.77
2022-10-18T02:01:15.751Z,22.78
2022-10-18T02:01:25.792Z,22.78
2022-10-18T02:01:35.848Z,22.77
2022-10-18T02:01:45.889Z,22.77
2022-10-18T02:01:55.934Z,22.77
2022-10-18T02:02:05.980Z,22.77
2022-10-18T02:02:16.024Z,22.77
2022-10-18T02:02:26.068Z,22.77
2022-10-18T02:02:36.107Z,22.77
2022-10-18T02:02:46.153Z,22.77
2022-10-18T02:02:56.203Z,22.75
2022-10-18T02:03:06.248Z,22.77
2022-10-18T02:03:16.280Z,22.75
2022-10-18T02:03:26.325Z,22.77
2022-10-18T02:03:36.371Z,22.77
2022-10-18T02:03:46.420Z,22.77
2022-10-18T02:03:56.467Z,22.75
2022-10-18T02:04:06.508Z,22.77
2022-10-18T02:04:16.560Z,22.78
2022-10-18T02:04:26.603Z,22.78
2022-10-18T02:04:36.646Z,22.77
2022-10-18T02:04:46.689Z,22.77
2022-10-18T02:04:56.728Z,22.77
2022-10-18T02:05:06.767Z,22.77
2022-10-18T02:05:16.812Z,22.77
2022-10-18T02:05:26.868Z,22.75
2022-10-18T02:05:36.915Z,22.75
2022-10-18T02:05:46.980Z,22.74
2022-10-18T02:05:57.024Z,22.77
2022-10-18T02:06:07.067Z,22.75
2022-10-18T02:06:17.130Z,22.77
2022-10-18T02:06:27.170Z,22.74
2022-10-18T02:06:37.212Z,22.72
2022-10-18T02:06:47.251Z,22.74
2022-10-18T02:06:57.302Z,22.74
2022-10-18T02:07:07.362Z,22.72
2022-10-18T02:07:17.402Z,22.74
2022-10-18T02:07:27.449Z,22.72
2022-10-18T02:07:37.492Z,22.72
2022-10-18T02:07:55.281Z,22.74
2022-10-18T02:08:19.259Z,22.72
2022-10-18T02:08:23.237Z,22.72
2022-10-18T02:08:27.921Z,22.74
2022-10-18T02:08:37.971Z,22.74
2022-10-18T02:08:48.009Z,22.74
2022-10-18T02:08:58.055Z,22.74
2022-10-18T02:09:08.096Z,22.75
2022-10-18T02:09:18.139Z,22.75
2022-10-18T02:09:28.182Z,22.74
2022-10-18T02:09:38.221Z,22.74
2022-10-18T02:09:48.266Z,22.74
2022-10-18T02:09:58.319Z,22.77
2022-10-18T02:10:08.424Z,22.74
2022-10-18T02:10:18.480Z,22.75
2022-10-18T02:10:28.521Z,22.75
2022-10-18T02:10:38.591Z,22.75
2022-10-18T02:10:48.639Z,22.74
2022-10-18T02:10:58.679Z,22.74
2022-10-18T02:11:08.725Z,22.72
2022-10-18T02:11:18.766Z,22.72
2022-10-18T02:11:28.808Z,22.74
2022-10-18T02:11:38.850Z,22.72
2022-10-18T02:11:48.899Z,22.74
2022-10-18T02:11:58.951Z,22.72
2022-10-18T02:12:08.991Z,22.74
2022-10-18T02:12:19.032Z,22.75
2022-10-18T02:12:29.328Z,22.74
2022-10-18T02:12:39.152Z,22.74
2022-10-18T02:12:49.200Z,22.74
2022-10-18T02:12:59.244Z,22.74
2022-10-18T02:13:09.296Z,22.74
2022-10-18T02:13:19.341Z,22.74
2022-10-18T02:13:29.399Z,22.72
2022-10-18T02:13:39.430Z,22.74
2022-10-18T02:13:49.473Z,22.74
2022-10-18T02:13:59.541Z,22.74
2022-10-18T02:14:09.579Z,22.74
2022-10-18T02:14:19.632Z,22.72
2022-10-18T02:14:29.673Z,22.71
2022-10-18T02:14:39.704Z,22.72
2022-10-18T02:14:49.753Z,22.72
2022-10-18T02:14:59.809Z,22.72
2022-10-18T02:15:09.850Z,22.72
2022-10-18T02:15:19.895Z,22.71
2022-10-18T02:15:29.937Z,22.71
2022-10-18T02:15:40.000Z,22.71
2022-10-18T02:15:50.042Z,22.72
2022-10-18T02:16:00.087Z,22.72
2022-10-18T02:16:10.121Z,22.74
2022-10-18T02:16:20.170Z,22.72
2022-10-18T02:16:30.210Z,22.74
2022-10-18T02:16:40.255Z,22.71
2022-10-18T02:16:50.300Z,22.72
2022-10-18T02:17:00.359Z,22.72
2022-10-18T02:17:10.396Z,22.72
2022-10-18T02:17:20.450Z,22.71
2022-10-18T02:17:30.497Z,22.72
2022-10-18T02:17:40.537Z,22.71
2022-10-18T02:17:50.581Z,22.71
2022-10-18T02:18:00.624Z,22.69
2022-10-18T02:18:10.659Z,22.69
2022-10-18T02:18:20.714Z,22.71
2022-10-18T02:18:30.752Z,22.71
2022-10-18T02:18:40.816Z,22.68
2022-10-18T02:18:50.859Z,22.68
2022-10-18T02:19:00.912Z,22.67
2022-10-18T02:19:11.009Z,22.67
2022-10-18T02:19:21.096Z,22.68
2022-10-18T02:19:31.062Z,22.65
2022-10-18T02:19:41.119Z,22.67
2022-10-18T02:19:51.159Z,22.65
2022-10-18T02:20:01.207Z,22.65
2022-10-18T02:20:11.255Z,22.65
2022-10-18T02:20:21.296Z,22.65
2022-10-18T02:20:31.342Z,22.65
2022-10-18T02:20:41.386Z,22.67
2022-10-18T02:20:51.429Z,22.67
2022-10-18T02:21:01.479Z,22.68
2022-10-18T02:21:11.513Z,22.69
2022-10-18T02:21:21.557Z,22.68
2022-10-18T02:21:31.604Z,22.67
2022-10-18T02:21:41.650Z,22.68
2022-10-18T02:21:51.707Z,22.67
2022-10-18T02:22:01.748Z,22.68
2022-10-18T02:22:11.795Z,22.69
2022-10-18T02:22:21.832Z,22.68
2022-10-18T02:22:32.170Z,22.68
2022-10-18T02:22:41.978Z,22.68
2022-10-18T02:22:52.045Z,22.69
2022-10-18T02:23:02.096Z,22.67
2022-10-18T02:23:12.153Z,22.69
2022-10-18T02:23:22.191Z,22.68
2022-10-18T02:23:32.262Z,22.68
2022-10-18T02:23:42.336Z,22.69
2022-10-18T02:23:52.378Z,22.68
2022-10-18T02:24:02.418Z,22.68
2022-10-18T02:24:12.466Z,22.68
2022-10-18T02:24:22.503Z,22.69
2022-10-18T02:24:32.555Z,22.67
2022-10-18T02:24:42.591Z,22.68
2022-10-18T02:24:52.640Z,22.67
2022-10-18T02:25:02.688Z,22.68
2022-10-18T02:25:12.748Z,22.69
2022-10-18T02:25:22.781Z,22.68
2022-10-18T02:25:32.832Z,22.69
2022-10-18T02:25:42.884Z,22.67
2022-10-18T02:25:52.933Z,22.67
2022-10-18T02:26:02.976Z,22.67
2022-10-18T02:26:13.019Z,22.67
2022-10-18T02:26:23.059Z,22.67
2022-10-18T02:26:33.101Z,22.65
2022-10-18T02:26:43.147Z,22.65